sensor_id;sensor_type;location;lat;lon;timestamp;temperature;humidity
12504;DHT22;6316;48.118;-1.690;2022-08-19T00:00:16;21.00;99.90
12504;DHT22;6316;48.118;-1.690;2022-08-19T00:02:43;21.00;99.90
12504;DHT22;6316;48.118;-1.690;2022-08-19T00:05:10;21.00;99.90
12504;DHT22;6316;48.118;-1.690;2022-08-19T00:07:37;20.90;99.90
12504;DHT22;6316;48.118;-1.690;2022-08-19T00:10:06;20.90;99.90
12504;DHT22;6316;48.118;-1.690;2022-08-19T00:12:33;20.90;99.90
12504;DHT22;6316;48.118;-1.690;2022-08-19T00:14:59;20.90;99.90
12504;DHT22;6316;48.118;-1.690;2022-08-19T00:17:25;20.80;99.90
12504;DHT22;6316;48.118;-1.690;2022-08-19T00:19:51;20.80;99.90
12504;DHT22;6316;48.118;-1.690;2022-08-19T00:22:16;20.80;99.90
12504;DHT22;6316;48.118;-1.690;2022-08-19T00:24:44;20.70;99.90
12504;DHT22;6316;48.118;-1.690;2022-08-19T00:27:11;20.70;99.90
12504;DHT22;6316;48.118;-1.690;2022-08-19T00:29:37;20.70;99.90
12504;DHT22;6316;48.118;-1.690;2022-08-19T00:32:03;20.70;99.90
12504;DHT22;6316;48.118;-1.690;2022-08-19T00:34:30;20.60;99.90
12504;DHT22;6316;48.118;-1.690;2022-08-19T00:36:56;20.70;99.90
12504;DHT22;6316;48.118;-1.690;2022-08-19T00:39:22;20.70;99.90
12504;DHT22;6316;48.118;-1.690;2022-08-19T00:41:49;20.70;99.90
12504;DHT22;6316;48.118;-1.690;2022-08-19T00:44:19;20.70;99.90
12504;DHT22;6316;48.118;-1.690;2022-08-19T00:46:46;20.70;99.90
12504;DHT22;6316;48.118;-1.690;2022-08-19T00:49:32;20.70;99.90
12504;DHT22;6316;48.118;-1.690;2022-08-19T00:52:27;20.70;99.90
12504;DHT22;6316;48.118;-1.690;2022-08-19T00:54:58;20.70;99.90
12504;DHT22;6316;48.118;-1.690;2022-08-19T00:57:30;20.70;99.90
12504;DHT22;6316;48.118;-1.690;2022-08-19T00:59:59;20.70;99.90
12504;DHT22;6316;48.118;-1.690;2022-08-19T01:02:26;20.70;99.90
12504;DHT22;6316;48.118;-1.690;2022-08-19T01:04:53;20.70;99.90
12504;DHT22;6316;48.118;-1.690;2022-08-19T01:07:19;20.60;99.90
12504;DHT22;6316;48.118;-1.690;2022-08-19T01:09:45;20.60;99.90
12504;DHT22;6316;48.118;-1.690;2022-08-19T01:12:11;20.60;99.90
12504;DHT22;6316;48.118;-1.690;2022-08-19T01:14:39;20.60;99.90
12504;DHT22;6316;48.118;-1.690;2022-08-19T01:17:07;20.60;99.90
12504;DHT22;6316;48.118;-1.690;2022-08-19T01:19:40;20.60;99.90
12504;DHT22;6316;48.118;-1.690;2022-08-19T01:22:15;20.60;99.90
12504;DHT22;6316;48.118;-1.690;2022-08-19T01:24:41;20.60;99.90
12504;DHT22;6316;48.118;-1.690;2022-08-19T01:27:07;20.60;99.90
12504;DHT22;6316;48.118;-1.690;2022-08-19T01:29:34;20.60;99.90
12504;DHT22;6316;48.118;-1.690;2022-08-19T01:32:02;20.60;99.90
12504;DHT22;6316;48.118;-1.690;2022-08-19T01:34:28;20.60;99.90
12504;DHT22;6316;48.118;-1.690;2022-08-19T01:36:53;20.60;99.90
12504;DHT22;6316;48.118;-1.690;2022-08-19T01:39:24;20.60;99.90
12504;DHT22;6316;48.118;-1.690;2022-08-19T01:41:51;20.60;99.90
12504;DHT22;6316;48.118;-1.690;2022-08-19T01:44:20;20.60;99.90
12504;DHT22;6316;48.118;-1.690;2022-08-19T01:46:49;20.60;99.90
12504;DHT22;6316;48.118;-1.690;2022-08-19T01:49:18;20.60;99.90
12504;DHT22;6316;48.118;-1.690;2022-08-19T01:51:45;20.60;99.90
12504;DHT22;6316;48.118;-1.690;2022-08-19T01:54:13;20.60;99.90
12504;DHT22;6316;48.118;-1.690;2022-08-19T01:56:39;20.60;99.90
12504;DHT22;6316;48.118;-1.690;2022-08-19T01:59:10;20.60;99.90
12504;DHT22;6316;48.118;-1.690;2022-08-19T02:01:36;20.60;99.90
12504;DHT22;6316;48.118;-1.690;2022-08-19T02:04:02;20.60;99.90
12504;DHT22;6316;48.118;-1.690;2022-08-19T02:06:28;20.60;99.90
12504;DHT22;6316;48.118;-1.690;2022-08-19T02:08:55;20.60;99.90
12504;DHT22;6316;48.118;-1.690;2022-08-19T02:11:30;20.60;99.90
12504;DHT22;6316;48.118;-1.690;2022-08-19T02:13:58;20.60;99.90
12504;DHT22;6316;48.118;-1.690;2022-08-19T02:16:24;20.60;99.90
12504;DHT22;6316;48.118;-1.690;2022-08-19T02:18:50;20.60;99.90
12504;DHT22;6316;48.118;-1.690;2022-08-19T02:21:20;20.60;99.90
12504;DHT22;6316;48.118;-1.690;2022-08-19T02:23:46;20.60;99.90
12504;DHT22;6316;48.118;-1.690;2022-08-19T02:26:13;20.60;99.90
12504;DHT22;6316;48.118;-1.690;2022-08-19T02:28:40;20.60;99.90
12504;DHT22;6316;48.118;-1.690;2022-08-19T02:31:11;20.60;99.90
12504;DHT22;6316;48.118;-1.690;2022-08-19T02:33:37;20.60;99.90
12504;DHT22;6316;48.118;-1.690;2022-08-19T02:36:05;20.60;99.90
12504;DHT22;6316;48.118;-1.690;2022-08-19T02:38:31;20.60;99.90
12504;DHT22;6316;48.118;-1.690;2022-08-19T02:41:11;20.60;99.90
12504;DHT22;6316;48.118;-1.690;2022-08-19T02:43:38;20.60;99.90
12504;DHT22;6316;48.118;-1.690;2022-08-19T02:46:24;20.60;99.90
12504;DHT22;6316;48.118;-1.690;2022-08-19T02:48:52;20.60;99.90
12504;DHT22;6316;48.118;-1.690;2022-08-19T02:51:22;20.60;99.90
12504;DHT22;6316;48.118;-1.690;2022-08-19T02:53:48;20.60;99.90
12504;DHT22;6316;48.118;-1.690;2022-08-19T02:56:14;20.50;99.90
12504;DHT22;6316;48.118;-1.690;2022-08-19T02:58:40;20.50;99.90
12504;DHT22;6316;48.118;-1.690;2022-08-19T03:01:06;20.50;99.90
12504;DHT22;6316;48.118;-1.690;2022-08-19T03:03:32;20.50;99.90
12504;DHT22;6316;48.118;-1.690;2022-08-19T03:06:23;20.50;99.90
12504;DHT22;6316;48.118;-1.690;2022-08-19T03:08:51;20.50;99.90
12504;DHT22;6316;48.118;-1.690;2022-08-19T03:11:18;20.50;99.90
12504;DHT22;6316;48.118;-1.690;2022-08-19T03:13:45;20.50;99.90
12504;DHT22;6316;48.118;-1.690;2022-08-19T03:16:11;20.50;99.90
12504;DHT22;6316;48.118;-1.690;2022-08-19T03:18:38;20.50;99.90
12504;DHT22;6316;48.118;-1.690;2022-08-19T03:21:04;20.50;99.90
12504;DHT22;6316;48.118;-1.690;2022-08-19T03:23:30;20.50;99.90
12504;DHT22;6316;48.118;-1.690;2022-08-19T03:25:56;20.50;99.90
12504;DHT22;6316;48.118;-1.690;2022-08-19T03:28:22;20.50;99.90
12504;DHT22;6316;48.118;-1.690;2022-08-19T03:30:57;20.50;99.90
12504;DHT22;6316;48.118;-1.690;2022-08-19T03:33:24;20.50;99.90
12504;DHT22;6316;48.118;-1.690;2022-08-19T03:36:00;20.50;99.90
12504;DHT22;6316;48.118;-1.690;2022-08-19T03:38:26;20.50;99.90
12504;DHT22;6316;48.118;-1.690;2022-08-19T03:40:52;20.50;99.90
12504;DHT22;6316;48.118;-1.690;2022-08-19T03:43:18;20.50;99.90
12504;DHT22;6316;48.118;-1.690;2022-08-19T03:45:44;20.50;99.90
12504;DHT22;6316;48.118;-1.690;2022-08-19T03:48:09;20.50;99.90
12504;DHT22;6316;48.118;-1.690;2022-08-19T03:50:39;20.50;99.90
12504;DHT22;6316;48.118;-1.690;2022-08-19T03:53:06;20.50;99.90
12504;DHT22;6316;48.118;-1.690;2022-08-19T03:55:33;20.50;99.90
12504;DHT22;6316;48.118;-1.690;2022-08-19T03:57:59;20.50;99.90
12504;DHT22;6316;48.118;-1.690;2022-08-19T04:00:24;20.50;99.90
12504;DHT22;6316;48.118;-1.690;2022-08-19T04:02:50;20.50;99.90
12504;DHT22;6316;48.118;-1.690;2022-08-19T04:05:15;20.50;99.90
12504;DHT22;6316;48.118;-1.690;2022-08-19T04:07:41;20.50;99.90
12504;DHT22;6316;48.118;-1.690;2022-08-19T04:10:07;20.50;99.90
12504;DHT22;6316;48.118;-1.690;2022-08-19T04:12:32;20.50;99.90
12504;DHT22;6316;48.118;-1.690;2022-08-19T04:14:58;20.50;99.90
12504;DHT22;6316;48.118;-1.690;2022-08-19T04:17:24;20.50;99.90
12504;DHT22;6316;48.118;-1.690;2022-08-19T04:19:50;20.50;99.90
12504;DHT22;6316;48.118;-1.690;2022-08-19T04:22:15;20.50;99.90
12504;DHT22;6316;48.118;-1.690;2022-08-19T04:24:41;20.50;99.90
12504;DHT22;6316;48.118;-1.690;2022-08-19T04:27:07;20.50;99.90
12504;DHT22;6316;48.118;-1.690;2022-08-19T04:29:33;20.40;99.90
12504;DHT22;6316;48.118;-1.690;2022-08-19T04:31:59;20.40;99.90
12504;DHT22;6316;48.118;-1.690;2022-08-19T04:34:27;20.40;99.90
12504;DHT22;6316;48.118;-1.690;2022-08-19T04:36:56;20.40;99.90
12504;DHT22;6316;48.118;-1.690;2022-08-19T04:39:28;20.40;99.90
12504;DHT22;6316;48.118;-1.690;2022-08-19T04:42:13;20.40;99.90
12504;DHT22;6316;48.118;-1.690;2022-08-19T04:44:58;20.40;99.90
12504;DHT22;6316;48.118;-1.690;2022-08-19T04:47:24;20.40;99.90
12504;DHT22;6316;48.118;-1.690;2022-08-19T04:49:50;20.40;99.90
12504;DHT22;6316;48.118;-1.690;2022-08-19T04:52:16;20.40;99.90
12504;DHT22;6316;48.118;-1.690;2022-08-19T04:54:42;20.40;99.90
12504;DHT22;6316;48.118;-1.690;2022-08-19T04:57:09;20.40;99.90
12504;DHT22;6316;48.118;-1.690;2022-08-19T04:59:36;20.40;99.90
12504;DHT22;6316;48.118;-1.690;2022-08-19T05:02:03;20.40;99.90
12504;DHT22;6316;48.118;-1.690;2022-08-19T05:04:29;20.40;99.90
12504;DHT22;6316;48.118;-1.690;2022-08-19T05:06:56;20.40;99.90
12504;DHT22;6316;48.118;-1.690;2022-08-19T05:09:22;20.40;99.90
12504;DHT22;6316;48.118;-1.690;2022-08-19T05:11:47;20.40;99.90
12504;DHT22;6316;48.118;-1.690;2022-08-19T05:14:15;20.30;99.90
12504;DHT22;6316;48.118;-1.690;2022-08-19T05:16:40;20.40;99.90
12504;DHT22;6316;48.118;-1.690;2022-08-19T05:19:06;20.40;99.90
12504;DHT22;6316;48.118;-1.690;2022-08-19T05:21:51;20.40;99.90
12504;DHT22;6316;48.118;-1.690;2022-08-19T05:24:35;20.40;99.90
12504;DHT22;6316;48.118;-1.690;2022-08-19T05:27:02;20.40;99.90
12504;DHT22;6316;48.118;-1.690;2022-08-19T05:29:30;20.40;99.90
12504;DHT22;6316;48.118;-1.690;2022-08-19T05:32:01;20.40;99.90
12504;DHT22;6316;48.118;-1.690;2022-08-19T05:34:27;20.30;99.90
12504;DHT22;6316;48.118;-1.690;2022-08-19T05:36:56;20.40;99.90
12504;DHT22;6316;48.118;-1.690;2022-08-19T05:39:25;20.40;99.90
12504;DHT22;6316;48.118;-1.690;2022-08-19T05:41:54;20.40;99.90
12504;DHT22;6316;48.118;-1.690;2022-08-19T05:44:26;20.40;99.90
12504;DHT22;6316;48.118;-1.690;2022-08-19T05:46:52;20.40;99.90
12504;DHT22;6316;48.118;-1.690;2022-08-19T05:49:21;20.40;99.90
12504;DHT22;6316;48.118;-1.690;2022-08-19T05:51:47;20.40;99.90
12504;DHT22;6316;48.118;-1.690;2022-08-19T05:54:13;20.40;99.90
12504;DHT22;6316;48.118;-1.690;2022-08-19T05:56:41;20.40;99.90
12504;DHT22;6316;48.118;-1.690;2022-08-19T05:59:08;20.40;99.90
12504;DHT22;6316;48.118;-1.690;2022-08-19T06:01:37;20.40;99.90
12504;DHT22;6316;48.118;-1.690;2022-08-19T06:04:04;20.50;99.90
12504;DHT22;6316;48.118;-1.690;2022-08-19T06:06:29;20.50;99.90
12504;DHT22;6316;48.118;-1.690;2022-08-19T06:08:55;20.50;99.90
12504;DHT22;6316;48.118;-1.690;2022-08-19T06:11:24;20.50;99.90
12504;DHT22;6316;48.118;-1.690;2022-08-19T06:13:53;20.50;99.90
12504;DHT22;6316;48.118;-1.690;2022-08-19T06:16:20;20.50;99.90
12504;DHT22;6316;48.118;-1.690;2022-08-19T06:18:52;20.50;99.90
12504;DHT22;6316;48.118;-1.690;2022-08-19T06:21:22;20.50;99.90
12504;DHT22;6316;48.118;-1.690;2022-08-19T06:23:49;20.50;99.90
12504;DHT22;6316;48.118;-1.690;2022-08-19T06:26:17;20.50;99.90
12504;DHT22;6316;48.118;-1.690;2022-08-19T06:28:42;20.60;99.90
12504;DHT22;6316;48.118;-1.690;2022-08-19T06:31:23;20.50;99.90
12504;DHT22;6316;48.118;-1.690;2022-08-19T06:33:49;20.60;99.90
12504;DHT22;6316;48.118;-1.690;2022-08-19T06:36:27;20.60;99.90
12504;DHT22;6316;48.118;-1.690;2022-08-19T06:38:55;20.60;99.90
12504;DHT22;6316;48.118;-1.690;2022-08-19T06:41:23;20.60;99.90
12504;DHT22;6316;48.118;-1.690;2022-08-19T06:43:49;20.60;99.90
12504;DHT22;6316;48.118;-1.690;2022-08-19T06:46:16;20.60;99.90
12504;DHT22;6316;48.118;-1.690;2022-08-19T06:48:44;20.70;99.90
12504;DHT22;6316;48.118;-1.690;2022-08-19T06:51:10;20.70;99.90
12504;DHT22;6316;48.118;-1.690;2022-08-19T06:53:35;20.80;99.90
12504;DHT22;6316;48.118;-1.690;2022-08-19T06:56:01;20.80;99.90
12504;DHT22;6316;48.118;-1.690;2022-08-19T06:58:29;20.80;99.90
12504;DHT22;6316;48.118;-1.690;2022-08-19T07:01:01;20.80;99.90
12504;DHT22;6316;48.118;-1.690;2022-08-19T07:03:31;20.90;99.90
12504;DHT22;6316;48.118;-1.690;2022-08-19T07:06:05;20.90;99.90
12504;DHT22;6316;48.118;-1.690;2022-08-19T07:08:32;20.90;99.90
12504;DHT22;6316;48.118;-1.690;2022-08-19T07:10:58;21.00;99.90
12504;DHT22;6316;48.118;-1.690;2022-08-19T07:13:24;21.00;99.90
12504;DHT22;6316;48.118;-1.690;2022-08-19T07:15:50;21.00;99.90
12504;DHT22;6316;48.118;-1.690;2022-08-19T07:18:20;21.10;99.90
12504;DHT22;6316;48.118;-1.690;2022-08-19T07:20:47;21.10;99.90
12504;DHT22;6316;48.118;-1.690;2022-08-19T07:23:13;21.20;99.90
12504;DHT22;6316;48.118;-1.690;2022-08-19T07:25:39;21.30;99.90
12504;DHT22;6316;48.118;-1.690;2022-08-19T07:28:05;21.30;99.90
12504;DHT22;6316;48.118;-1.690;2022-08-19T07:30:33;21.40;99.90
12504;DHT22;6316;48.118;-1.690;2022-08-19T07:33:01;21.40;99.90
12504;DHT22;6316;48.118;-1.690;2022-08-19T07:35:26;21.50;99.90
12504;DHT22;6316;48.118;-1.690;2022-08-19T07:37:53;21.50;99.90
12504;DHT22;6316;48.118;-1.690;2022-08-19T07:40:19;21.60;99.90
12504;DHT22;6316;48.118;-1.690;2022-08-19T07:42:44;21.60;99.90
12504;DHT22;6316;48.118;-1.690;2022-08-19T07:45:10;21.70;99.90
12504;DHT22;6316;48.118;-1.690;2022-08-19T07:47:36;21.60;99.90
12504;DHT22;6316;48.118;-1.690;2022-08-19T07:50:02;21.70;99.90
12504;DHT22;6316;48.118;-1.690;2022-08-19T07:52:30;21.70;99.90
12504;DHT22;6316;48.118;-1.690;2022-08-19T07:54:55;21.70;99.90
12504;DHT22;6316;48.118;-1.690;2022-08-19T07:57:21;21.80;99.90
12504;DHT22;6316;48.118;-1.690;2022-08-19T07:59:46;21.90;99.90
12504;DHT22;6316;48.118;-1.690;2022-08-19T08:02:12;22.10;99.90
12504;DHT22;6316;48.118;-1.690;2022-08-19T08:04:38;22.20;99.90
12504;DHT22;6316;48.118;-1.690;2022-08-19T08:07:22;22.30;99.90
12504;DHT22;6316;48.118;-1.690;2022-08-19T08:10:07;22.50;99.90
12504;DHT22;6316;48.118;-1.690;2022-08-19T08:12:38;22.50;99.90
12504;DHT22;6316;48.118;-1.690;2022-08-19T08:15:10;22.60;99.90
12504;DHT22;6316;48.118;-1.690;2022-08-19T08:17:36;22.80;99.90
12504;DHT22;6316;48.118;-1.690;2022-08-19T08:20:06;22.90;99.90
12504;DHT22;6316;48.118;-1.690;2022-08-19T08:22:32;23.10;99.90
12504;DHT22;6316;48.118;-1.690;2022-08-19T08:25:20;23.30;99.90
12504;DHT22;6316;48.118;-1.690;2022-08-19T08:27:46;23.40;99.90
12504;DHT22;6316;48.118;-1.690;2022-08-19T08:30:18;23.50;99.90
12504;DHT22;6316;48.118;-1.690;2022-08-19T08:32:44;23.70;99.90
12504;DHT22;6316;48.118;-1.690;2022-08-19T08:35:13;23.70;99.90
12504;DHT22;6316;48.118;-1.690;2022-08-19T08:37:39;23.80;99.90
12504;DHT22;6316;48.118;-1.690;2022-08-19T08:40:10;23.90;99.90
12504;DHT22;6316;48.118;-1.690;2022-08-19T08:42:46;24.10;99.90
12504;DHT22;6316;48.118;-1.690;2022-08-19T08:45:17;24.10;99.90
12504;DHT22;6316;48.118;-1.690;2022-08-19T08:47:47;24.10;99.90
12504;DHT22;6316;48.118;-1.690;2022-08-19T08:50:27;24.20;99.90
12504;DHT22;6316;48.118;-1.690;2022-08-19T08:52:56;24.50;99.90
12504;DHT22;6316;48.118;-1.690;2022-08-19T08:55:27;25.20;99.90
12504;DHT22;6316;48.118;-1.690;2022-08-19T08:58:17;25.80;99.90
12504;DHT22;6316;48.118;-1.690;2022-08-19T09:01:00;26.60;99.90
12504;DHT22;6316;48.118;-1.690;2022-08-19T09:03:27;26.90;99.90
12504;DHT22;6316;48.118;-1.690;2022-08-19T09:06:03;27.10;99.90
12504;DHT22;6316;48.118;-1.690;2022-08-19T09:11:30;27.20;99.90
12504;DHT22;6316;48.118;-1.690;2022-08-19T09:14:07;27.10;99.90
12504;DHT22;6316;48.118;-1.690;2022-08-19T09:16:36;26.80;99.90
12504;DHT22;6316;48.118;-1.690;2022-08-19T09:19:04;26.50;99.90
12504;DHT22;6316;48.118;-1.690;2022-08-19T09:21:30;26.20;99.90
12504;DHT22;6316;48.118;-1.690;2022-08-19T09:23:57;25.80;99.90
12504;DHT22;6316;48.118;-1.690;2022-08-19T09:26:24;25.50;99.90
12504;DHT22;6316;48.118;-1.690;2022-08-19T09:28:52;25.30;99.90
12504;DHT22;6316;48.118;-1.690;2022-08-19T09:31:24;25.00;99.90
12504;DHT22;6316;48.118;-1.690;2022-08-19T09:33:51;25.00;99.90
12504;DHT22;6316;48.118;-1.690;2022-08-19T09:36:18;24.90;99.90
12504;DHT22;6316;48.118;-1.690;2022-08-19T09:38:44;24.90;99.90
12504;DHT22;6316;48.118;-1.690;2022-08-19T09:41:15;24.80;99.90
12504;DHT22;6316;48.118;-1.690;2022-08-19T09:43:44;24.70;99.90
12504;DHT22;6316;48.118;-1.690;2022-08-19T09:46:11;24.70;99.90
12504;DHT22;6316;48.118;-1.690;2022-08-19T09:48:38;24.60;99.90
12504;DHT22;6316;48.118;-1.690;2022-08-19T09:51:11;24.50;99.90
12504;DHT22;6316;48.118;-1.690;2022-08-19T09:53:41;24.50;99.90
12504;DHT22;6316;48.118;-1.690;2022-08-19T09:56:07;24.50;99.90
12504;DHT22;6316;48.118;-1.690;2022-08-19T09:58:33;24.60;99.90
12504;DHT22;6316;48.118;-1.690;2022-08-19T10:01:00;24.70;99.90
12504;DHT22;6316;48.118;-1.690;2022-08-19T10:03:28;24.70;99.90
12504;DHT22;6316;48.118;-1.690;2022-08-19T10:05:55;24.60;99.90
12504;DHT22;6316;48.118;-1.690;2022-08-19T10:08:32;24.60;99.90
12504;DHT22;6316;48.118;-1.690;2022-08-19T10:10:59;24.70;99.90
12504;DHT22;6316;48.118;-1.690;2022-08-19T10:13:29;24.80;99.90
12504;DHT22;6316;48.118;-1.690;2022-08-19T10:16:01;24.90;99.90
12504;DHT22;6316;48.118;-1.690;2022-08-19T10:18:27;24.90;99.90
12504;DHT22;6316;48.118;-1.690;2022-08-19T10:21:03;24.80;99.90
12504;DHT22;6316;48.118;-1.690;2022-08-19T10:23:33;24.70;99.90
12504;DHT22;6316;48.118;-1.690;2022-08-19T10:26:00;24.60;99.90
12504;DHT22;6316;48.118;-1.690;2022-08-19T10:28:25;24.50;99.90
12504;DHT22;6316;48.118;-1.690;2022-08-19T10:30:51;24.50;99.90
12504;DHT22;6316;48.118;-1.690;2022-08-19T10:33:17;24.50;99.90
12504;DHT22;6316;48.118;-1.690;2022-08-19T10:35:43;24.50;99.90
12504;DHT22;6316;48.118;-1.690;2022-08-19T10:38:09;24.50;99.90
12504;DHT22;6316;48.118;-1.690;2022-08-19T10:40:35;24.50;99.90
12504;DHT22;6316;48.118;-1.690;2022-08-19T10:43:00;24.60;99.90
12504;DHT22;6316;48.118;-1.690;2022-08-19T10:45:26;24.70;99.90
12504;DHT22;6316;48.118;-1.690;2022-08-19T10:47:53;24.80;99.90
12504;DHT22;6316;48.118;-1.690;2022-08-19T10:50:19;24.90;99.90
12504;DHT22;6316;48.118;-1.690;2022-08-19T10:53:05;24.80;99.90
12504;DHT22;6316;48.118;-1.690;2022-08-19T10:55:31;24.70;99.90
12504;DHT22;6316;48.118;-1.690;2022-08-19T10:58:17;24.70;99.90
12504;DHT22;6316;48.118;-1.690;2022-08-19T11:00:55;24.70;99.90
12504;DHT22;6316;48.118;-1.690;2022-08-19T11:03:22;24.60;99.90
12504;DHT22;6316;48.118;-1.690;2022-08-19T11:06:00;24.70;99.90
12504;DHT22;6316;48.118;-1.690;2022-08-19T11:08:26;24.80;99.90
12504;DHT22;6316;48.118;-1.690;2022-08-19T11:10:53;24.90;99.90
12504;DHT22;6316;48.118;-1.690;2022-08-19T11:13:22;25.00;99.90
12504;DHT22;6316;48.118;-1.690;2022-08-19T11:16:17;25.10;99.90
12504;DHT22;6316;48.118;-1.690;2022-08-19T11:18:46;25.20;99.90
12504;DHT22;6316;48.118;-1.690;2022-08-19T11:23:40;25.30;99.90
12504;DHT22;6316;48.118;-1.690;2022-08-19T11:26:06;25.40;99.90
12504;DHT22;6316;48.118;-1.690;2022-08-19T11:28:32;25.40;99.90
12504;DHT22;6316;48.118;-1.690;2022-08-19T11:30:57;25.40;99.90
12504;DHT22;6316;48.118;-1.690;2022-08-19T11:33:23;25.40;99.90
12504;DHT22;6316;48.118;-1.690;2022-08-19T11:35:50;25.40;99.90
12504;DHT22;6316;48.118;-1.690;2022-08-19T11:38:16;25.30;99.90
12504;DHT22;6316;48.118;-1.690;2022-08-19T11:40:42;25.40;99.90
12504;DHT22;6316;48.118;-1.690;2022-08-19T11:43:07;25.40;99.90
12504;DHT22;6316;48.118;-1.690;2022-08-19T11:45:33;25.50;99.90
12504;DHT22;6316;48.118;-1.690;2022-08-19T11:47:59;25.60;99.90
12504;DHT22;6316;48.118;-1.690;2022-08-19T11:50:25;25.60;99.90
12504;DHT22;6316;48.118;-1.690;2022-08-19T11:52:54;25.60;99.90
12504;DHT22;6316;48.118;-1.690;2022-08-19T11:55:19;25.60;99.90
12504;DHT22;6316;48.118;-1.690;2022-08-19T11:57:45;25.70;99.90
12504;DHT22;6316;48.118;-1.690;2022-08-19T12:00:12;25.80;99.90
12504;DHT22;6316;48.118;-1.690;2022-08-19T12:02:39;25.90;99.90
12504;DHT22;6316;48.118;-1.690;2022-08-19T12:05:05;25.90;99.90
12504;DHT22;6316;48.118;-1.690;2022-08-19T12:07:31;25.90;99.90
12504;DHT22;6316;48.118;-1.690;2022-08-19T12:09:59;25.80;99.90
12504;DHT22;6316;48.118;-1.690;2022-08-19T12:12:24;25.60;99.90
12504;DHT22;6316;48.118;-1.690;2022-08-19T12:14:50;25.50;99.90
12504;DHT22;6316;48.118;-1.690;2022-08-19T12:17:22;25.40;99.90
12504;DHT22;6316;48.118;-1.690;2022-08-19T12:19:48;25.30;99.90
12504;DHT22;6316;48.118;-1.690;2022-08-19T12:22:14;25.20;99.90
12504;DHT22;6316;48.118;-1.690;2022-08-19T12:24:39;25.10;99.90
12504;DHT22;6316;48.118;-1.690;2022-08-19T12:27:05;25.10;99.90
12504;DHT22;6316;48.118;-1.690;2022-08-19T12:29:31;25.10;99.90
12504;DHT22;6316;48.118;-1.690;2022-08-19T12:31:58;25.10;99.90
12504;DHT22;6316;48.118;-1.690;2022-08-19T12:34:28;25.30;99.90
12504;DHT22;6316;48.118;-1.690;2022-08-19T12:36:57;25.40;99.90
12504;DHT22;6316;48.118;-1.690;2022-08-19T12:39:22;25.50;99.90
12504;DHT22;6316;48.118;-1.690;2022-08-19T12:41:48;25.70;99.90
12504;DHT22;6316;48.118;-1.690;2022-08-19T12:44:14;25.80;99.90
12504;DHT22;6316;48.118;-1.690;2022-08-19T12:46:40;25.90;99.90
12504;DHT22;6316;48.118;-1.690;2022-08-19T12:49:05;26.00;99.90
12504;DHT22;6316;48.118;-1.690;2022-08-19T12:51:31;26.00;99.90
12504;DHT22;6316;48.118;-1.690;2022-08-19T12:53:57;26.00;99.90
12504;DHT22;6316;48.118;-1.690;2022-08-19T12:56:23;26.00;99.90
12504;DHT22;6316;48.118;-1.690;2022-08-19T12:58:48;26.00;99.90
12504;DHT22;6316;48.118;-1.690;2022-08-19T13:01:16;26.00;99.90
12504;DHT22;6316;48.118;-1.690;2022-08-19T13:03:44;26.10;99.90
12504;DHT22;6316;48.118;-1.690;2022-08-19T13:06:10;26.10;99.90
12504;DHT22;6316;48.118;-1.690;2022-08-19T13:08:36;26.10;99.90
12504;DHT22;6316;48.118;-1.690;2022-08-19T13:11:13;26.00;99.90
12504;DHT22;6316;48.118;-1.690;2022-08-19T13:13:44;25.90;99.90
12504;DHT22;6316;48.118;-1.690;2022-08-19T13:16:11;25.80;99.90
12504;DHT22;6316;48.118;-1.690;2022-08-19T13:18:38;25.80;99.90
12504;DHT22;6316;48.118;-1.690;2022-08-19T13:21:06;25.70;99.90
12504;DHT22;6316;48.118;-1.690;2022-08-19T13:23:33;25.60;99.90
12504;DHT22;6316;48.118;-1.690;2022-08-19T13:26:02;25.60;99.90
12504;DHT22;6316;48.118;-1.690;2022-08-19T13:28:28;25.60;99.90
12504;DHT22;6316;48.118;-1.690;2022-08-19T13:31:16;25.60;99.90
12504;DHT22;6316;48.118;-1.690;2022-08-19T13:34:00;25.80;99.90
12504;DHT22;6316;48.118;-1.690;2022-08-19T13:36:26;25.90;99.90
12504;DHT22;6316;48.118;-1.690;2022-08-19T13:38:52;26.00;99.90
12504;DHT22;6316;48.118;-1.690;2022-08-19T13:41:17;26.00;99.90
12504;DHT22;6316;48.118;-1.690;2022-08-19T13:43:44;26.10;99.90
12504;DHT22;6316;48.118;-1.690;2022-08-19T13:46:11;26.00;99.90
12504;DHT22;6316;48.118;-1.690;2022-08-19T13:48:39;25.90;99.90
12504;DHT22;6316;48.118;-1.690;2022-08-19T13:51:07;25.80;99.90
12504;DHT22;6316;48.118;-1.690;2022-08-19T13:53:36;25.60;99.90
12504;DHT22;6316;48.118;-1.690;2022-08-19T13:56:08;25.40;99.90
12504;DHT22;6316;48.118;-1.690;2022-08-19T13:58:34;24.90;99.90
12504;DHT22;6316;48.118;-1.690;2022-08-19T14:00:59;24.60;99.90
12504;DHT22;6316;48.118;-1.690;2022-08-19T14:03:26;24.30;99.90
12504;DHT22;6316;48.118;-1.690;2022-08-19T14:05:52;24.10;99.90
12504;DHT22;6316;48.118;-1.690;2022-08-19T14:08:18;23.80;99.90
12504;DHT22;6316;48.118;-1.690;2022-08-19T14:10:44;23.60;99.90
12504;DHT22;6316;48.118;-1.690;2022-08-19T14:13:13;23.40;99.90
12504;DHT22;6316;48.118;-1.690;2022-08-19T14:15:40;23.20;99.90
12504;DHT22;6316;48.118;-1.690;2022-08-19T14:18:05;23.10;99.90
12504;DHT22;6316;48.118;-1.690;2022-08-19T14:20:34;23.00;99.90
12504;DHT22;6316;48.118;-1.690;2022-08-19T14:23:01;22.90;99.90
12504;DHT22;6316;48.118;-1.690;2022-08-19T14:25:28;22.80;99.90
12504;DHT22;6316;48.118;-1.690;2022-08-19T14:27:57;22.80;99.90
12504;DHT22;6316;48.118;-1.690;2022-08-19T14:30:25;22.70;99.90
12504;DHT22;6316;48.118;-1.690;2022-08-19T14:32:53;22.70;99.90
12504;DHT22;6316;48.118;-1.690;2022-08-19T14:35:20;22.60;99.90
12504;DHT22;6316;48.118;-1.690;2022-08-19T14:37:48;22.60;99.90
12504;DHT22;6316;48.118;-1.690;2022-08-19T14:40:17;22.60;99.90
12504;DHT22;6316;48.118;-1.690;2022-08-19T14:42:43;22.50;99.90
12504;DHT22;6316;48.118;-1.690;2022-08-19T14:45:10;22.50;99.90
12504;DHT22;6316;48.118;-1.690;2022-08-19T14:47:36;22.50;99.90
12504;DHT22;6316;48.118;-1.690;2022-08-19T14:50:02;22.40;99.90
12504;DHT22;6316;48.118;-1.690;2022-08-19T14:52:28;22.40;99.90
12504;DHT22;6316;48.118;-1.690;2022-08-19T14:54:53;22.40;99.90
12504;DHT22;6316;48.118;-1.690;2022-08-19T14:57:19;22.30;99.90
12504;DHT22;6316;48.118;-1.690;2022-08-19T14:59:45;22.30;99.90
12504;DHT22;6316;48.118;-1.690;2022-08-19T15:02:11;22.30;99.90
12504;DHT22;6316;48.118;-1.690;2022-08-19T15:04:37;22.20;99.90
12504;DHT22;6316;48.118;-1.690;2022-08-19T15:07:03;22.20;99.90
12504;DHT22;6316;48.118;-1.690;2022-08-19T15:09:31;22.20;99.90
12504;DHT22;6316;48.118;-1.690;2022-08-19T15:11:56;22.10;99.90
12504;DHT22;6316;48.118;-1.690;2022-08-19T15:14:25;22.10;99.90
12504;DHT22;6316;48.118;-1.690;2022-08-19T15:16:51;22.00;99.90
12504;DHT22;6316;48.118;-1.690;2022-08-19T15:19:17;22.00;99.90
12504;DHT22;6316;48.118;-1.690;2022-08-19T15:21:43;22.00;99.90
12504;DHT22;6316;48.118;-1.690;2022-08-19T15:24:09;21.90;99.90
12504;DHT22;6316;48.118;-1.690;2022-08-19T15:26:34;21.90;99.90
12504;DHT22;6316;48.118;-1.690;2022-08-19T15:29:00;21.90;99.90
12504;DHT22;6316;48.118;-1.690;2022-08-19T15:31:27;21.80;99.90
12504;DHT22;6316;48.118;-1.690;2022-08-19T15:33:53;21.70;99.90
12504;DHT22;6316;48.118;-1.690;2022-08-19T15:36:22;21.60;99.90
12504;DHT22;6316;48.118;-1.690;2022-08-19T15:38:48;21.60;99.90
12504;DHT22;6316;48.118;-1.690;2022-08-19T15:41:20;21.50;99.90